sensor_id;sensor_type;location;lat;lon;timestamp;P1;durP1;ratioP1;P2;durP2;ratioP2
9970;SDS011;5026;51.494;11.974;2023-04-01T00:01:41;3.60;;;1.30;;
9970;SDS011;5026;51.494;11.974;2023-04-01T00:04:08;2.00;;;1.07;;
9970;SDS011;5026;51.494;11.974;2023-04-01T00:06:35;2.90;;;1.20;;
9970;SDS011;5026;51.494;11.974;2023-04-01T00:09:03;1.47;;;1.30;;
9970;SDS011;5026;51.494;11.974;2023-04-01T00:11:30;1.43;;;1.20;;
9970;SDS011;5026;51.494;11.974;2023-04-01T00:13:58;4.20;;;1.77;;
9970;SDS011;5026;51.494;11.974;2023-04-01T00:16:25;3.40;;;1.23;;
9970;SDS011;5026;51.494;11.974;2023-04-01T00:18:52;2.50;;;1.50;;
9970;SDS011;5026;51.494;11.974;2023-04-01T00:21:19;3.27;;;1.50;;
9970;SDS011;5026;51.494;11.974;2023-04-01T00:23:47;1.93;;;1.47;;
9970;SDS011;5026;51.494;11.974;2023-04-01T00:26:15;4.33;;;1.53;;
9970;SDS011;5026;51.494;11.974;2023-04-01T00:28:45;3.70;;;1.20;;
9970;SDS011;5026;51.494;11.974;2023-04-01T00:31:13;1.67;;;1.17;;
9970;SDS011;5026;51.494;11.974;2023-04-01T00:33:40;2.77;;;1.10;;
9970;SDS011;5026;51.494;11.974;2023-04-01T00:36:08;3.60;;;1.20;;
9970;SDS011;5026;51.494;11.974;2023-04-01T00:38:36;2.87;;;1.30;;
9970;SDS011;5026;51.494;11.974;2023-04-01T00:41:03;2.50;;;1.03;;
9970;SDS011;5026;51.494;11.974;2023-04-01T00:43:32;6.40;;;1.60;;
9970;SDS011;5026;51.494;11.974;2023-04-01T00:46:00;3.77;;;1.43;;
9970;SDS011;5026;51.494;11.974;2023-04-01T00:48:28;2.17;;;1.23;;
9970;SDS011;5026;51.494;11.974;2023-04-01T00:50:57;2.90;;;1.23;;
9970;SDS011;5026;51.494;11.974;2023-04-01T00:53:27;3.63;;;1.50;;
9970;SDS011;5026;51.494;11.974;2023-04-01T00:55:56;6.03;;;1.37;;
9970;SDS011;5026;51.494;11.974;2023-04-01T00:58:27;4.73;;;1.33;;
9970;SDS011;5026;51.494;11.974;2023-04-01T01:01:00;4.93;;;1.13;;
9970;SDS011;5026;51.494;11.974;2023-04-01T01:03:27;3.20;;;1.20;;
9970;SDS011;5026;51.494;11.974;2023-04-01T01:06:00;1.90;;;1.03;;
9970;SDS011;5026;51.494;11.974;2023-04-01T01:08:38;4.50;;;1.30;;
9970;SDS011;5026;51.494;11.974;2023-04-01T01:11:16;2.20;;;1.13;;
9970;SDS011;5026;51.494;11.974;2023-04-01T01:13:52;5.70;;;1.70;;
9970;SDS011;5026;51.494;11.974;2023-04-01T01:16:29;1.90;;;1.07;;
9970;SDS011;5026;51.494;11.974;2023-04-01T01:19:02;2.87;;;1.20;;
9970;SDS011;5026;51.494;11.974;2023-04-01T01:21:54;4.17;;;1.60;;
9970;SDS011;5026;51.494;11.974;2023-04-01T01:24:56;3.73;;;1.13;;
9970;SDS011;5026;51.494;11.974;2023-04-01T01:27:44;5.17;;;1.37;;
9970;SDS011;5026;51.494;11.974;2023-04-01T01:30:30;2.87;;;1.23;;
9970;SDS011;5026;51.494;11.974;2023-04-01T01:36:00;2.87;;;1.33;;
9970;SDS011;5026;51.494;11.974;2023-04-01T01:38:31;2.17;;;1.10;;
9970;SDS011;5026;51.494;11.974;2023-04-01T01:41:00;3.10;;;0.83;;
9970;SDS011;5026;51.494;11.974;2023-04-01T01:43:30;3.70;;;1.20;;
9970;SDS011;5026;51.494;11.974;2023-04-01T01:46:03;2.37;;;1.30;;
9970;SDS011;5026;51.494;11.974;2023-04-01T01:48:33;4.50;;;1.23;;
9970;SDS011;5026;51.494;11.974;2023-04-01T01:51:04;3.40;;;1.20;;
9970;SDS011;5026;51.494;11.974;2023-04-01T01:53:32;3.90;;;1.53;;
9970;SDS011;5026;51.494;11.974;2023-04-01T01:55:59;3.47;;;1.00;;
9970;SDS011;5026;51.494;11.974;2023-04-01T01:58:27;2.00;;;1.30;;
9970;SDS011;5026;51.494;11.974;2023-04-01T02:00:58;3.30;;;1.10;;
9970;SDS011;5026;51.494;11.974;2023-04-01T02:03:28;5.40;;;1.13;;
9970;SDS011;5026;51.494;11.974;2023-04-01T02:05:58;5.90;;;1.40;;
9970;SDS011;5026;51.494;11.974;2023-04-01T02:08:30;3.20;;;1.83;;
9970;SDS011;5026;51.494;11.974;2023-04-01T02:11:01;3.47;;;1.60;;
9970;SDS011;5026;51.494;11.974;2023-04-01T02:13:31;2.33;;;1.20;;
9970;SDS011;5026;51.494;11.974;2023-04-01T02:16:05;2.70;;;1.03;;
9970;SDS011;5026;51.494;11.974;2023-04-01T02:18:35;2.77;;;1.30;;
9970;SDS011;5026;51.494;11.974;2023-04-01T02:21:03;1.77;;;0.83;;
9970;SDS011;5026;51.494;11.974;2023-04-01T02:23:33;2.80;;;1.50;;
9970;SDS011;5026;51.494;11.974;2023-04-01T02:26:02;2.47;;;1.33;;
9970;SDS011;5026;51.494;11.974;2023-04-01T02:28:31;1.57;;;1.00;;
9970;SDS011;5026;51.494;11.974;2023-04-01T02:30:59;1.57;;;1.00;;
9970;SDS011;5026;51.494;11.974;2023-04-01T02:33:27;5.13;;;1.30;;
9970;SDS011;5026;51.494;11.974;2023-04-01T02:35:56;1.77;;;1.10;;
9970;SDS011;5026;51.494;11.974;2023-04-01T02:38:23;3.87;;;1.27;;
9970;SDS011;5026;51.494;11.974;2023-04-01T02:40:56;1.80;;;1.00;;
9970;SDS011;5026;51.494;11.974;2023-04-01T02:43:25;6.93;;;1.50;;
9970;SDS011;5026;51.494;11.974;2023-04-01T02:45:52;3.47;;;1.30;;
9970;SDS011;5026;51.494;11.974;2023-04-01T02:48:19;1.40;;;0.83;;
9970;SDS011;5026;51.494;11.974;2023-04-01T02:50:46;1.60;;;1.20;;
9970;SDS011;5026;51.494;11.974;2023-04-01T02:53:13;2.07;;;1.20;;
9970;SDS011;5026;51.494;11.974;2023-04-01T02:55:40;3.00;;;1.17;;
9970;SDS011;5026;51.494;11.974;2023-04-01T02:58:08;3.17;;;1.33;;
9970;SDS011;5026;51.494;11.974;2023-04-01T03:00:35;1.83;;;1.13;;
9970;SDS011;5026;51.494;11.974;2023-04-01T03:03:02;1.83;;;1.27;;
9970;SDS011;5026;51.494;11.974;2023-04-01T03:05:29;3.80;;;1.30;;
9970;SDS011;5026;51.494;11.974;2023-04-01T03:07:56;3.10;;;1.10;;
9970;SDS011;5026;51.494;11.974;2023-04-01T03:10:23;4.97;;;1.27;;
9970;SDS011;5026;51.494;11.974;2023-04-01T03:12:50;4.83;;;1.77;;
9970;SDS011;5026;51.494;11.974;2023-04-01T03:15:18;2.23;;;1.27;;
9970;SDS011;5026;51.494;11.974;2023-04-01T03:17:45;3.07;;;1.07;;
9970;SDS011;5026;51.494;11.974;2023-04-01T03:20:12;2.63;;;1.20;;
9970;SDS011;5026;51.494;11.974;2023-04-01T03:22:40;2.87;;;1.07;;
9970;SDS011;5026;51.494;11.974;2023-04-01T03:25:07;4.43;;;1.50;;
9970;SDS011;5026;51.494;11.974;2023-04-01T03:27:36;1.37;;;1.20;;
9970;SDS011;5026;51.494;11.974;2023-04-01T03:30:03;3.03;;;1.37;;
9970;SDS011;5026;51.494;11.974;2023-04-01T03:32:32;2.13;;;0.90;;
9970;SDS011;5026;51.494;11.974;2023-04-01T03:34:59;3.60;;;1.17;;
9970;SDS011;5026;51.494;11.974;2023-04-01T03:37:26;4.43;;;1.33;;
9970;SDS011;5026;51.494;11.974;2023-04-01T03:39:53;3.30;;;1.03;;
9970;SDS011;5026;51.494;11.974;2023-04-01T03:42:20;2.90;;;1.50;;
9970;SDS011;5026;51.494;11.974;2023-04-01T03:44:47;4.00;;;1.50;;
9970;SDS011;5026;51.494;11.974;2023-04-01T03:47:14;1.73;;;1.10;;
9970;SDS011;5026;51.494;11.974;2023-04-01T03:49:43;1.43;;;1.10;;
9970;SDS011;5026;51.494;11.974;2023-04-01T03:52:10;3.67;;;1.27;;
9970;SDS011;5026;51.494;11.974;2023-04-01T03:54:37;2.30;;;1.20;;
9970;SDS011;5026;51.494;11.974;2023-04-01T03:57:04;2.83;;;0.93;;
9970;SDS011;5026;51.494;11.974;2023-04-01T03:59:31;5.03;;;1.37;;
9970;SDS011;5026;51.494;11.974;2023-04-01T04:01:58;2.43;;;1.30;;
9970;SDS011;5026;51.494;11.974;2023-04-01T04:04:25;4.23;;;1.50;;
9970;SDS011;5026;51.494;11.974;2023-04-01T04:06:53;2.30;;;1.10;;
9970;SDS011;5026;51.494;11.974;2023-04-01T04:09:21;4.53;;;1.60;;
9970;SDS011;5026;51.494;11.974;2023-04-01T04:11:48;2.00;;;1.30;;
9970;SDS011;5026;51.494;11.974;2023-04-01T04:14:16;2.07;;;0.80;;
9970;SDS011;5026;51.494;11.974;2023-04-01T04:16:43;4.87;;;1.77;;
9970;SDS011;5026;51.494;11.974;2023-04-01T04:19:10;2.13;;;0.90;;
9970;SDS011;5026;51.494;11.974;2023-04-01T04:21:37;1.80;;;1.20;;
9970;SDS011;5026;51.494;11.974;2023-04-01T04:24:07;2.17;;;0.73;;
9970;SDS011;5026;51.494;11.974;2023-04-01T04:26:34;5.33;;;1.00;;
9970;SDS011;5026;51.494;11.974;2023-04-01T04:29:02;4.20;;;1.20;;
9970;SDS011;5026;51.494;11.974;2023-04-01T04:31:29;3.70;;;1.10;;
9970;SDS011;5026;51.494;11.974;2023-04-01T04:33:56;2.77;;;1.20;;
9970;SDS011;5026;51.494;11.974;2023-04-01T04:36:25;2.13;;;1.40;;
9970;SDS011;5026;51.494;11.974;2023-04-01T04:38:52;2.43;;;1.50;;
9970;SDS011;5026;51.494;11.974;2023-04-01T04:41:20;2.40;;;1.53;;
9970;SDS011;5026;51.494;11.974;2023-04-01T04:43:49;3.70;;;1.30;;
9970;SDS011;5026;51.494;11.974;2023-04-01T04:46:17;2.93;;;1.00;;
9970;SDS011;5026;51.494;11.974;2023-04-01T04:48:44;1.63;;;1.17;;
9970;SDS011;5026;51.494;11.974;2023-04-01T04:51:15;3.27;;;0.90;;
9970;SDS011;5026;51.494;11.974;2023-04-01T04:53:42;2.33;;;0.93;;
9970;SDS011;5026;51.494;11.974;2023-04-01T04:56:10;4.23;;;1.47;;
9970;SDS011;5026;51.494;11.974;2023-04-01T04:58:39;4.07;;;1.10;;
9970;SDS011;5026;51.494;11.974;2023-04-01T05:01:07;1.70;;;1.10;;
9970;SDS011;5026;51.494;11.974;2023-04-01T05:03:35;1.20;;;0.83;;
9970;SDS011;5026;51.494;11.974;2023-04-01T05:06:02;1.77;;;0.93;;
9970;SDS011;5026;51.494;11.974;2023-04-01T05:08:30;4.10;;;1.27;;
9970;SDS011;5026;51.494;11.974;2023-04-01T05:10:57;3.80;;;1.20;;
9970;SDS011;5026;51.494;11.974;2023-04-01T05:13:25;3.23;;;1.80;;
9970;SDS011;5026;51.494;11.974;2023-04-01T05:15:53;1.67;;;1.03;;
9970;SDS011;5026;51.494;11.974;2023-04-01T05:18:20;1.90;;;1.20;;
9970;SDS011;5026;51.494;11.974;2023-04-01T05:20:47;6.43;;;1.97;;
9970;SDS011;5026;51.494;11.974;2023-04-01T05:23:16;2.73;;;1.50;;
9970;SDS011;5026;51.494;11.974;2023-04-01T05:25:43;2.17;;;1.40;;
9970;SDS011;5026;51.494;11.974;2023-04-01T05:28:11;1.47;;;1.10;;
9970;SDS011;5026;51.494;11.974;2023-04-01T05:30:39;4.33;;;1.57;;
9970;SDS011;5026;51.494;11.974;2023-04-01T05:33:08;2.17;;;1.40;;
9970;SDS011;5026;51.494;11.974;2023-04-01T05:35:38;1.80;;;1.47;;
9970;SDS011;5026;51.494;11.974;2023-04-01T05:38:08;2.40;;;1.00;;
9970;SDS011;5026;51.494;11.974;2023-04-01T05:40:37;1.23;;;1.10;;
9970;SDS011;5026;51.494;11.974;2023-04-01T05:43:04;2.97;;;1.23;;
9970;SDS011;5026;51.494;11.974;2023-04-01T05:45:31;2.53;;;1.23;;
9970;SDS011;5026;51.494;11.974;2023-04-01T05:47:58;3.70;;;1.30;;
9970;SDS011;5026;51.494;11.974;2023-04-01T05:50:27;1.33;;;0.90;;
9970;SDS011;5026;51.494;11.974;2023-04-01T05:52:54;2.27;;;1.00;;
9970;SDS011;5026;51.494;11.974;2023-04-01T05:55:21;2.10;;;1.20;;
9970;SDS011;5026;51.494;11.974;2023-04-01T05:57:48;2.87;;;1.00;;
9970;SDS011;5026;51.494;11.974;2023-04-01T06:00:15;1.65;;;0.90;;
9970;SDS011;5026;51.494;11.974;2023-04-01T06:02:44;1.90;;;1.00;;
9970;SDS011;5026;51.494;11.974;2023-04-01T06:05:13;2.03;;;1.10;;
9970;SDS011;5026;51.494;11.974;2023-04-01T06:07:44;1.53;;;0.90;;
9970;SDS011;5026;51.494;11.974;2023-04-01T06:10:12;2.10;;;1.10;;
9970;SDS011;5026;51.494;11.974;2023-04-01T06:12:51;3.15;;;1.15;;
9970;SDS011;5026;51.494;11.974;2023-04-01T06:15:25;1.25;;;0.93;;
9970;SDS011;5026;51.494;11.974;2023-04-01T06:24:07;3.90;;;0.97;;
9970;SDS011;5026;51.494;11.974;2023-04-01T06:26:46;1.40;;;1.10;;
9970;SDS011;5026;51.494;11.974;2023-04-01T06:29:22;2.10;;;1.10;;
9970;SDS011;5026;51.494;11.974;2023-04-01T06:32:10;2.88;;;0.88;;
9970;SDS011;5026;51.494;11.974;2023-04-01T06:34:52;2.47;;;1.25;;
9970;SDS011;5026;51.494;11.974;2023-04-01T06:37:40;2.60;;;0.90;;
9970;SDS011;5026;51.494;11.974;2023-04-01T06:43:17;2.05;;;0.90;;
9970;SDS011;5026;51.494;11.974;2023-04-01T06:45:53;3.08;;;1.08;;
9970;SDS011;5026;51.494;11.974;2023-04-01T06:48:38;1.30;;;1.17;;
9970;SDS011;5026;51.494;11.974;2023-04-01T06:51:19;2.92;;;0.95;;
9970;SDS011;5026;51.494;11.974;2023-04-01T06:53:54;2.55;;;0.90;;
9970;SDS011;5026;51.494;11.974;2023-04-01T06:56:28;1.20;;;1.00;;
9970;SDS011;5026;51.494;11.974;2023-04-01T06:58:56;2.97;;;1.30;;
9970;SDS011;5026;51.494;11.974;2023-04-01T07:01:28;1.33;;;0.80;;
9970;SDS011;5026;51.494;11.974;2023-04-01T07:04:00;1.55;;;1.20;;
9970;SDS011;5026;51.494;11.974;2023-04-01T07:06:31;2.10;;;1.10;;
9970;SDS011;5026;51.494;11.974;2023-04-01T07:09:03;2.10;;;1.25;;
9970;SDS011;5026;51.494;11.974;2023-04-01T07:11:37;4.35;;;1.08;;
9970;SDS011;5026;51.494;11.974;2023-04-01T07:14:06;3.45;;;1.30;;
9970;SDS011;5026;51.494;11.974;2023-04-01T07:16:43;1.83;;;1.08;;
9970;SDS011;5026;51.494;11.974;2023-04-01T07:19:15;2.15;;;1.17;;
9970;SDS011;5026;51.494;11.974;2023-04-01T07:21:48;2.38;;;0.93;;
9970;SDS011;5026;51.494;11.974;2023-04-01T07:24:21;1.73;;;1.00;;
9970;SDS011;5026;51.494;11.974;2023-04-01T07:26:54;2.17;;;1.30;;
9970;SDS011;5026;51.494;11.974;2023-04-01T07:29:22;3.63;;;1.70;;
9970;SDS011;5026;51.494;11.974;2023-04-01T07:32:02;2.28;;;1.20;;
9970;SDS011;5026;51.494;11.974;2023-04-01T07:34:38;2.63;;;1.23;;
9970;SDS011;5026;51.494;11.974;2023-04-01T07:37:17;2.60;;;1.30;;
9970;SDS011;5026;51.494;11.974;2023-04-01T07:39:51;1.55;;;0.90;;
9970;SDS011;5026;51.494;11.974;2023-04-01T07:42:27;2.75;;;1.23;;
9970;SDS011;5026;51.494;11.974;2023-04-01T07:45:03;1.63;;;1.02;;
9970;SDS011;5026;51.494;11.974;2023-04-01T07:47:41;1.80;;;0.90;;
9970;SDS011;5026;51.494;11.974;2023-04-01T07:50:21;1.42;;;0.93;;
9970;SDS011;5026;51.494;11.974;2023-04-01T07:52:55;1.23;;;0.65;;
9970;SDS011;5026;51.494;11.974;2023-04-01T07:55:33;0.82;;;0.73;;
9970;SDS011;5026;51.494;11.974;2023-04-01T07:58:09;2.85;;;0.75;;
9970;SDS011;5026;51.494;11.974;2023-04-01T08:00:43;2.10;;;0.95;;
9970;SDS011;5026;51.494;11.974;2023-04-01T08:03:18;2.22;;;1.20;;
9970;SDS011;5026;51.494;11.974;2023-04-01T08:05:57;0.90;;;0.45;;
9970;SDS011;5026;51.494;11.974;2023-04-01T08:08:30;1.52;;;0.82;;
9970;SDS011;5026;51.494;11.974;2023-04-01T08:11:06;1.48;;;0.80;;
9970;SDS011;5026;51.494;11.974;2023-04-01T08:13:42;2.30;;;0.77;;
9970;SDS011;5026;51.494;11.974;2023-04-01T08:16:13;1.10;;;0.98;;
9970;SDS011;5026;51.494;11.974;2023-04-01T08:18:51;1.52;;;0.82;;
9970;SDS011;5026;51.494;11.974;2023-04-01T08:21:27;2.10;;;1.00;;
9970;SDS011;5026;51.494;11.974;2023-04-01T08:23:58;2.13;;;1.10;;
9970;SDS011;5026;51.494;11.974;2023-04-01T08:26:32;2.65;;;0.80;;
9970;SDS011;5026;51.494;11.974;2023-04-01T08:29:04;1.05;;;0.90;;
9970;SDS011;5026;51.494;11.974;2023-04-01T08:31:37;1.65;;;0.88;;
9970;SDS011;5026;51.494;11.974;2023-04-01T08:34:10;1.63;;;0.80;;
9970;SDS011;5026;51.494;11.974;2023-04-01T08:36:42;4.22;;;0.70;;
9970;SDS011;5026;51.494;11.974;2023-04-01T08:39:14;0.80;;;0.60;;
9970;SDS011;5026;51.494;11.974;2023-04-01T08:42:04;2.30;;;0.80;;
9970;SDS011;5026;51.494;11.974;2023-04-01T08:47:52;3.42;;;0.75;;
9970;SDS011;5026;51.494;11.974;2023-04-01T08:50:50;8.60;;;1.20;;
9970;SDS011;5026;51.494;11.974;2023-04-01T08:53:40;2.97;;;0.98;;
9970;SDS011;5026;51.494;11.974;2023-04-01T08:56:18;2.67;;;0.88;;
9970;SDS011;5026;51.494;11.974;2023-04-01T08:58:59;1.85;;;0.77;;
9970;SDS011;5026;51.494;11.974;2023-04-01T09:02:00;1.60;;;0.85;;
9970;SDS011;5026;51.494;11.974;2023-04-01T09:04:50;2.17;;;0.90;;
9970;SDS011;5026;51.494;11.974;2023-04-01T09:07:39;3.75;;;1.17;;
9970;SDS011;5026;51.494;11.974;2023-04-01T09:13:15;1.27;;;0.65;;
9970;SDS011;5026;51.494;11.974;2023-04-01T09:21:48;0.85;;;0.70;;
9970;SDS011;5026;51.494;11.974;2023-04-01T09:24:42;0.85;;;0.73;;
9970;SDS011;5026;51.494;11.974;2023-04-01T09:27:37;1.63;;;1.15;;
9970;SDS011;5026;51.494;11.974;2023-04-01T09:30:19;1.35;;;0.57;;
9970;SDS011;5026;51.494;11.974;2023-04-01T09:36:28;2.30;;;0.55;;
9970;SDS011;5026;51.494;11.974;2023-04-01T09:39:13;0.50;;;0.50;;
9970;SDS011;5026;51.494;11.974;2023-04-01T09:41:57;0.60;;;0.60;;
9970;SDS011;5026;51.494;11.974;2023-04-01T09:44:40;1.00;;;0.80;;
9970;SDS011;5026;51.494;11.974;2023-04-01T09:47:19;2.17;;;1.05;;
9970;SDS011;5026;51.494;11.974;2023-04-01T09:50:00;0.52;;;0.52;;
9970;SDS011;5026;51.494;11.974;2023-04-01T09:52:46;3.20;;;0.40;;
9970;SDS011;5026;51.494;11.974;2023-04-01T09:55:30;1.17;;;0.60;;
9970;SDS011;5026;51.494;11.974;2023-04-01T09:58:33;2.22;;;0.80;;
9970;SDS011;5026;51.494;11.974;2023-04-01T10:01:27;0.77;;;0.45;;
9970;SDS011;5026;51.494;11.974;2023-04-01T10:04:14;0.43;;;0.32;;
9970;SDS011;5026;51.494;11.974;2023-04-01T10:10:23;1.92;;;0.70;;
9970;SDS011;5026;51.494;11.974;2023-04-01T10:13:20;0.50;;;0.50;;
9970;SDS011;5026;51.494;11.974;2023-04-01T10:16:34;0.35;;;0.35;;
9970;SDS011;5026;51.494;11.974;2023-04-01T10:28:58;0.40;;;0.40;;
9970;SDS011;5026;51.494;11.974;2023-04-01T10:34:50;0.57;;;0.57;;
9970;SDS011;5026;51.494;11.974;2023-04-01T10:41:16;1.00;;;0.70;;
9970;SDS011;5026;51.494;11.974;2023-04-01T10:47:16;2.83;;;0.93;;
9970;SDS011;5026;51.494;11.974;2023-04-01T10:53:10;1.20;;;0.70;;
9970;SDS011;5026;51.494;11.974;2023-04-01T10:59:10;0.65;;;0.50;;
9970;SDS011;5026;51.494;11.974;2023-04-01T11:02:04;1.27;;;0.73;;
9970;SDS011;5026;51.494;11.974;2023-04-01T11:05:11;1.05;;;0.80;;
9970;SDS011;5026;51.494;11.974;2023-04-01T11:11:19;1.15;;;0.80;;
9970;SDS011;5026;51.494;11.974;2023-04-01T11:17:23;0.80;;;0.45;;
9970;SDS011;5026;51.494;11.974;2023-04-01T11:23:32;0.85;;;0.75;;
9970;SDS011;5026;51.494;11.974;2023-04-01T11:26:30;1.17;;;0.65;;
9970;SDS011;5026;51.494;11.974;2023-04-01T11:29:11;2.58;;;1.00;;
9970;SDS011;5026;51.494;11.974;2023-04-01T11:31:54;2.47;;;0.68;;
9970;SDS011;5026;51.494;11.974;2023-04-01T11:34:42;1.63;;;0.63;;
9970;SDS011;5026;51.494;11.974;2023-04-01T11:37:21;1.20;;;0.98;;
9970;SDS011;5026;51.494;11.974;2023-04-01T11:39:59;0.80;;;0.65;;
9970;SDS011;5026;51.494;11.974;2023-04-01T11:42:39;0.82;;;0.40;;
9970;SDS011;5026;51.494;11.974;2023-04-01T11:45:15;0.63;;;0.63;;
9970;SDS011;5026;51.494;11.974;2023-04-01T11:50:52;3.05;;;0.80;;
9970;SDS011;5026;51.494;11.974;2023-04-01T11:53:34;2.05;;;0.52;;
9970;SDS011;5026;51.494;11.974;2023-04-01T11:56:13;1.30;;;0.50;;
9970;SDS011;5026;51.494;11.974;2023-04-01T11:59:01;1.65;;;0.50;;
9970;SDS011;5026;51.494;11.974;2023-04-01T12:01:49;0.90;;;0.68;;
9970;SDS011;5026;51.494;11.974;2023-04-01T12:04:32;0.45;;;0.40;;
9970;SDS011;5026;51.494;11.974;2023-04-01T12:07:13;0.50;;;0.50;;
9970;SDS011;5026;51.494;11.974;2023-04-01T12:09:49;1.65;;;0.40;;
9970;SDS011;5026;51.494;11.974;2023-04-01T12:12:24;1.92;;;0.50;;
9970;SDS011;5026;51.494;11.974;2023-04-01T12:15:01;1.00;;;0.40;;
9970;SDS011;5026;51.494;11.974;2023-04-01T12:17:39;1.88;;;0.50;;
9970;SDS011;5026;51.494;11.974;2023-04-01T12:20:23;0.65;;;0.52;;
9970;SDS011;5026;51.494;11.974;2023-04-01T12:22:59;1.48;;;0.75;;
9970;SDS011;5026;51.494;11.974;2023-04-01T12:25:44;2.22;;;0.70;;
9970;SDS011;5026;51.494;11.974;2023-04-01T12:28:39;1.08;;;0.45;;
9970;SDS011;5026;51.494;11.974;2023-04-01T12:31:18;0.68;;;0.50;;
9970;SDS011;5026;51.494;11.974;2023-04-01T12:34:13;1.77;;;0.70;;
9970;SDS011;5026;51.494;11.974;2023-04-01T12:36:59;2.22;;;0.60;;
9970;SDS011;5026;51.494;11.974;2023-04-01T12:42:44;1.50;;;0.77;;
9970;SDS011;5026;51.494;11.974;2023-04-01T12:45:28;0.82;;;0.70;;
9970;SDS011;5026;51.494;11.974;2023-04-01T12:48:04;0.65;;;0.55;;
9970;SDS011;5026;51.494;11.974;2023-04-01T12:51:11;0.50;;;0.50;;
9970;SDS011;5026;51.494;11.974;2023-04-01T12:54:17;0.98;;;0.55;;
9970;SDS011;5026;51.494;11.974;2023-04-01T12:57:07;0.75;;;0.55;;
9970;SDS011;5026;51.494;11.974;2023-04-01T13:02:44;1.58;;;0.70;;
9970;SDS011;5026;51.494;11.974;2023-04-01T13:05:38;0.80;;;0.57;;
9970;SDS011;5026;51.494;11.974;2023-04-01T13:08:29;0.90;;;0.65;;
9970;SDS011;5026;51.494;11.974;2023-04-01T13:11:08;0.88;;;0.50;;
9970;SDS011;5026;51.494;11.974;2023-04-01T13:13:45;0.82;;;0.50;;
9970;SDS011;5026;51.494;11.974;2023-04-01T13:16:26;1.73;;;1.10;;
9970;SDS011;5026;51.494;11.974;2023-04-01T13:18:58;1.55;;;0.93;;
9970;SDS011;5026;51.494;11.974;2023-04-01T13:21:33;0.77;;;0.75;;
9970;SDS011;5026;51.494;11.974;2023-04-01T13:24:13;1.38;;;0.43;;
9970;SDS011;5026;51.494;11.974;2023-04-01T13:26:51;0.40;;;0.40;;
9970;SDS011;5026;51.494;11.974;2023-04-01T13:29:23;4.03;;;2.35;;
9970;SDS011;5026;51.494;11.974;2023-04-01T13:32:03;2.55;;;1.20;;
9970;SDS011;5026;51.494;11.974;2023-04-01T13:34:46;1.35;;;0.63;;
9970;SDS011;5026;51.494;11.974;2023-04-01T13:37:24;0.98;;;0.80;;
9970;SDS011;5026;51.494;11.974;2023-04-01T13:40:02;0.95;;;0.65;;
9970;SDS011;5026;51.494;11.974;2023-04-01T13:42:43;1.35;;;1.25;;
9970;SDS011;5026;51.494;11.974;2023-04-01T13:45:15;3.60;;;2.72;;
9970;SDS011;5026;51.494;11.974;2023-04-01T13:50:56;2.63;;;2.40;;
9970;SDS011;5026;51.494;11.974;2023-04-01T13:53:44;2.97;;;2.42;;
9970;SDS011;5026;51.494;11.974;2023-04-01T13:56:25;1.38;;;1.27;;
9970;SDS011;5026;51.494;11.974;2023-04-01T13:59:08;1.38;;;1.20;;
9970;SDS011;5026;51.494;11.974;2023-04-01T14:01:57;2.25;;;0.60;;
9970;SDS011;5026;51.494;11.974;2023-04-01T14:04:47;4.00;;;1.00;;
9970;SDS011;5026;51.494;11.974;2023-04-01T14:07:29;2.00;;;1.50;;
9970;SDS011;5026;51.494;11.974;2023-04-01T14:10:07;4.13;;;0.90;;
9970;SDS011;5026;51.494;11.974;2023-04-01T14:12:46;1.25;;;0.73;;
9970;SDS011;5026;51.494;11.974;2023-04-01T14:15:23;1.27;;;0.88;;
9970;SDS011;5026;51.494;11.974;2023-04-01T14:18:10;1.35;;;0.90;;
9970;SDS011;5026;51.494;11.974;2023-04-01T14:21:07;1.95;;;1.40;;
9970;SDS011;5026;51.494;11.974;2023-04-01T14:24:05;1.02;;;0.80;;
9970;SDS011;5026;51.494;11.974;2023-04-01T14:32:48;2.33;;;0.90;;
9970;SDS011;5026;51.494;11.974;2023-04-01T14:35:33;1.45;;;0.90;;
9970;SDS011;5026;51.494;11.974;2023-04-01T14:38:14;2.03;;;1.20;;
9970;SDS011;5026;51.494;11.974;2023-04-01T14:41:08;3.80;;;1.08;;
9970;SDS011;5026;51.494;11.974;2023-04-01T14:43:52;1.27;;;1.17;;
9970;SDS011;5026;51.494;11.974;2023-04-01T14:46:39;1.27;;;1.00;;
9970;SDS011;5026;51.494;11.974;2023-04-01T14:49:35;1.35;;;1.23;;
9970;SDS011;5026;51.494;11.974;2023-04-01T14:52:08;1.48;;;1.38;;
9970;SDS011;5026;51.494;11.974;2023-04-01T14:54:40;2.28;;;1.50;;
9970;SDS011;5026;51.494;11.974;2023-04-01T14:57:12;3.25;;;1.67;;
9970;SDS011;5026;51.494;11.974;2023-04-01T14:59:45;3.60;;;1.30;;
9970;SDS011;5026;51.494;11.974;2023-04-01T15:02:21;2.00;;;1.33;;
9970;SDS011;5026;51.494;11.974;2023-04-01T15:05:15;1.52;;;1.10;;
9970;SDS011;5026;51.494;11.974;2023-04-01T15:08:00;1.42;;;1.33;;
9970;SDS011;5026;51.494;11.974;2023-04-01T15:10:40;1.23;;;1.20;;
9970;SDS011;5026;51.494;11.974;2023-04-01T15:13:29;2.50;;;1.77;;
9970;SDS011;5026;51.494;11.974;2023-04-01T15:16:11;2.58;;;1.80;;
9970;SDS011;5026;51.494;11.974;2023-04-01T15:18:48;2.58;;;1.60;;
9970;SDS011;5026;51.494;11.974;2023-04-01T15:21:37;2.25;;;1.80;;
9970;SDS011;5026;51.494;11.974;2023-04-01T15:24:20;3.53;;;1.90;;
9970;SDS011;5026;51.494;11.974;2023-04-01T15:29:54;1.77;;;1.60;;
9970;SDS011;5026;51.494;11.974;2023-04-01T15:32:48;2.03;;;1.25;;
9970;SDS011;5026;51.494;11.974;2023-04-01T15:35:26;1.50;;;1.38;;
9970;SDS011;5026;51.494;11.974;2023-04-01T15:38:04;1.52;;;1.30;;
9970;SDS011;5026;51.494;11.974;2023-04-01T15:40:38;1.25;;;1.15;;
9970;SDS011;5026;51.494;11.974;2023-04-01T15:43:16;2.30;;;1.85;;
9970;SDS011;5026;51.494;11.974;2023-04-01T15:46:08;1.30;;;1.20;;
9970;SDS011;5026;51.494;11.974;2023-04-01T15:49:00;2.35;;;1.60;;
9970;SDS011;5026;51.494;11.974;2023-04-01T15:51:38;1.50;;;1.30;;
9970;SDS011;5026;51.494;11.974;2023-04-01T15:57:37;2.03;;;1.30;;
9970;SDS011;5026;51.494;11.974;2023-04-01T16:00:22;1.80;;;1.60;;
9970;SDS011;5026;51.494;11.974;2023-04-01T16:05:42;1.42;;;1.23;;
9970;SDS011;5026;51.494;11.974;2023-04-01T16:08:30;1.70;;;1.60;;
9970;SDS011;5026;51.494;11.974;2023-04-01T16:11:14;1.27;;;1.17;;
9970;SDS011;5026;51.494;11.974;2023-04-01T16:13:53;1.67;;;1.55;;
9970;SDS011;5026;51.494;11.974;2023-04-01T16:16:31;2.20;;;1.88;;
9970;SDS011;5026;51.494;11.974;2023-04-01T16:22:05;4.82;;;2.50;;
9970;SDS011;5026;51.494;11.974;2023-04-01T16:24:38;5.47;;;3.30;;
9970;SDS011;5026;51.494;11.974;2023-04-01T16:27:12;8.45;;;4.60;;
9970;SDS011;5026;51.494;11.974;2023-04-01T16:29:45;11.02;;;5.15;;
9970;SDS011;5026;51.494;11.974;2023-04-01T16:32:20;11.38;;;6.00;;
9970;SDS011;5026;51.494;11.974;2023-04-01T16:34:58;14.15;;;6.20;;
9970;SDS011;5026;51.494;11.974;2023-04-01T16:37:43;8.57;;;4.90;;
9970;SDS011;5026;51.494;11.974;2023-04-01T16:40:15;3.15;;;2.85;;
9970;SDS011;5026;51.494;11.974;2023-04-01T16:42:50;2.88;;;2.40;;
9970;SDS011;5026;51.494;11.974;2023-04-01T16:45:21;4.65;;;2.88;;
9970;SDS011;5026;51.494;11.974;2023-04-01T16:47:56;5.25;;;4.20;;
9970;SDS011;5026;51.494;11.974;2023-04-01T16:50:28;7.95;;;6.30;;
9970;SDS011;5026;51.494;11.974;2023-04-01T16:53:08;9.13;;;7.05;;
9970;SDS011;5026;51.494;11.974;2023-04-01T16:55:46;4.93;;;4.28;;
9970;SDS011;5026;51.494;11.974;2023-04-01T16:58:18;4.18;;;3.30;;
9970;SDS011;5026;51.494;11.974;2023-04-01T17:00:52;3.03;;;1.73;;
9970;SDS011;5026;51.494;11.974;2023-04-01T17:03:22;1.83;;;1.70;;
9970;SDS011;5026;51.494;11.974;2023-04-01T17:06:01;1.65;;;1.50;;
9970;SDS011;5026;51.494;11.974;2023-04-01T17:08:41;1.45;;;1.15;;
9970;SDS011;5026;51.494;11.974;2023-04-01T17:11:17;1.88;;;1.33;;
9970;SDS011;5026;51.494;11.974;2023-04-01T17:13:49;1.88;;;1.38;;
9970;SDS011;5026;51.494;11.974;2023-04-01T17:16:28;1.60;;;1.50;;
9970;SDS011;5026;51.494;11.974;2023-04-01T17:19:33;2.38;;;2.13;;
9970;SDS011;5026;51.494;11.974;2023-04-01T17:22:16;3.45;;;2.00;;
9970;SDS011;5026;51.494;11.974;2023-04-01T17:25:00;2.45;;;1.60;;
9970;SDS011;5026;51.494;11.974;2023-04-01T17:27:40;2.25;;;1.77;;
9970;SDS011;5026;51.494;11.974;2023-04-01T17:30:17;4.80;;;2.13;;
9970;SDS011;5026;51.494;11.974;2023-04-01T17:32:54;1.87;;;1.77;;